Pismo Beach, California
Current Conditions -  °F | °C
As of 9:56 AM on Sunday 21 Dec 2014 (Local Time) from KSBP Reporting Station
Clear Clear  
Wind Chill: 63°   Ceiling: Unl
Heat Index: 63°   Visibility: 10mi
Dew Point: 51°   Wind: 0mph
Humidity: 65%   Direction: NA
Pressure: 30.26"   Gusts: NA
Location:  35.16°N, 120.66°W
Report Text: KSBP 211756Z 00000KT 10SM CLR 17/11 A3026 RMK AO2 WSHFT 1648 SLP244 T01720106 10172 20117 53004
Loading
Personal Weather Stations






























Interactive Weather Map New forecast layout! Learn more

10-Day Weather Forecast

Advertisements
Track Severe Weather on mobile